Terminal Aerodrome Forecast
Issued by NWS

Current Version | Previous Version | Graphics & Text | Print | Product List | Glossary On
Versions: 1 2 3 4 5 6 7 8 9 10 11 12 13 14
457
FTUS41 KPBZ 231720
TAFHLG
TAF
KHLG 231720Z 2318/2418 04005KT P6SM SCT250
      TEMPO 2409/2412 3SM BR=

USA.gov is the U.S. government's official web portal to all federal, state and local government web resources and services.